sensor_id;sensor_type;location;lat;lon;timestamp;P1;durP1;ratioP1;P2;durP2;ratioP2
34741;SDS011;20968;42.696;23.360;2022-10-16T00:01:32;12.38;;;5.63;;
34741;SDS011;20968;42.696;23.360;2022-10-16T00:03:58;7.97;;;4.78;;
34741;SDS011;20968;42.696;23.360;2022-10-16T00:06:25;12.48;;;5.88;;
34741;SDS011;20968;42.696;23.360;2022-10-16T00:08:51;7.78;;;4.82;;
34741;SDS011;20968;42.696;23.360;2022-10-16T00:11:36;10.18;;;4.88;;
34741;SDS011;20968;42.696;23.360;2022-10-16T00:14:05;8.07;;;4.90;;
34741;SDS011;20968;42.696;23.360;2022-10-16T00:16:37;9.45;;;5.45;;
34741;SDS011;20968;42.696;23.360;2022-10-16T00:19:03;10.73;;;6.30;;
34741;SDS011;20968;42.696;23.360;2022-10-16T00:21:29;9.82;;;5.40;;
34741;SDS011;20968;42.696;23.360;2022-10-16T00:23:57;8.73;;;5.50;;
34741;SDS011;20968;42.696;23.360;2022-10-16T00:26:27;5.93;;;4.40;;
34741;SDS011;20968;42.696;23.360;2022-10-16T00:28:54;9.30;;;5.18;;
34741;SDS011;20968;42.696;23.360;2022-10-16T00:31:21;13.88;;;6.53;;
34741;SDS011;20968;42.696;23.360;2022-10-16T00:33:47;9.88;;;5.25;;
34741;SDS011;20968;42.696;23.360;2022-10-16T00:36:14;8.10;;;4.80;;
34741;SDS011;20968;42.696;23.360;2022-10-16T00:38:41;9.30;;;5.63;;
34741;SDS011;20968;42.696;23.360;2022-10-16T00:41:09;13.52;;;5.85;;
34741;SDS011;20968;42.696;23.360;2022-10-16T00:43:48;9.38;;;5.28;;
34741;SDS011;20968;42.696;23.360;2022-10-16T00:46:19;14.77;;;5.78;;
34741;SDS011;20968;42.696;23.360;2022-10-16T00:48:47;8.82;;;5.03;;
34741;SDS011;20968;42.696;23.360;2022-10-16T00:51:17;9.65;;;5.85;;
34741;SDS011;20968;42.696;23.360;2022-10-16T00:53:46;7.88;;;5.63;;
34741;SDS011;20968;42.696;23.360;2022-10-16T00:56:11;9.60;;;5.80;;
34741;SDS011;20968;42.696;23.360;2022-10-16T00:58:37;9.30;;;5.63;;
34741;SDS011;20968;42.696;23.360;2022-10-16T01:01:03;8.88;;;5.75;;
34741;SDS011;20968;42.696;23.360;2022-10-16T01:03:30;11.02;;;6.07;;
34741;SDS011;20968;42.696;23.360;2022-10-16T01:09:22;11.30;;;6.65;;
34741;SDS011;20968;42.696;23.360;2022-10-16T01:17:35;12.65;;;6.63;;
34741;SDS011;20968;42.696;23.360;2022-10-16T01:22:31;10.10;;;6.00;;
34741;SDS011;20968;42.696;23.360;2022-10-16T01:25:05;7.18;;;5.35;;
34741;SDS011;20968;42.696;23.360;2022-10-16T01:27:36;11.68;;;5.55;;
34741;SDS011;20968;42.696;23.360;2022-10-16T01:30:13;12.85;;;5.10;;
34741;SDS011;20968;42.696;23.360;2022-10-16T01:32:45;13.85;;;5.57;;
34741;SDS011;20968;42.696;23.360;2022-10-16T01:35:24;8.63;;;5.03;;
34741;SDS011;20968;42.696;23.360;2022-10-16T01:38:06;9.55;;;4.82;;
34741;SDS011;20968;42.696;23.360;2022-10-16T01:40:38;9.40;;;4.97;;
34741;SDS011;20968;42.696;23.360;2022-10-16T01:43:11;8.75;;;5.35;;
34741;SDS011;20968;42.696;23.360;2022-10-16T01:45:39;9.35;;;4.85;;
34741;SDS011;20968;42.696;23.360;2022-10-16T01:48:09;11.23;;;5.97;;
34741;SDS011;20968;42.696;23.360;2022-10-16T01:50:39;11.10;;;5.78;;
34741;SDS011;20968;42.696;23.360;2022-10-16T01:53:08;10.30;;;5.85;;
34741;SDS011;20968;42.696;23.360;2022-10-16T01:55:39;9.95;;;5.80;;
34741;SDS011;20968;42.696;23.360;2022-10-16T01:58:10;10.35;;;5.10;;
34741;SDS011;20968;42.696;23.360;2022-10-16T02:00:38;9.52;;;5.05;;
34741;SDS011;20968;42.696;23.360;2022-10-16T02:03:07;9.48;;;5.50;;
34741;SDS011;20968;42.696;23.360;2022-10-16T02:05:36;6.75;;;5.00;;
34741;SDS011;20968;42.696;23.360;2022-10-16T02:08:09;7.85;;;5.18;;
34741;SDS011;20968;42.696;23.360;2022-10-16T02:10:34;8.57;;;5.47;;
34741;SDS011;20968;42.696;23.360;2022-10-16T02:13:24;10.95;;;6.32;;
34741;SDS011;20968;42.696;23.360;2022-10-16T02:15:52;9.15;;;6.05;;
34741;SDS011;20968;42.696;23.360;2022-10-16T02:18:18;14.75;;;6.70;;
34741;SDS011;20968;42.696;23.360;2022-10-16T02:20:51;9.27;;;6.15;;
34741;SDS011;20968;42.696;23.360;2022-10-16T02:23:24;8.93;;;5.93;;
34741;SDS011;20968;42.696;23.360;2022-10-16T02:26:07;11.40;;;6.35;;
34741;SDS011;20968;42.696;23.360;2022-10-16T02:28:39;10.15;;;6.70;;
34741;SDS011;20968;42.696;23.360;2022-10-16T02:31:08;14.13;;;6.85;;
34741;SDS011;20968;42.696;23.360;2022-10-16T02:33:36;9.40;;;6.47;;
34741;SDS011;20968;42.696;23.360;2022-10-16T02:36:04;9.63;;;6.15;;
34741;SDS011;20968;42.696;23.360;2022-10-16T02:38:30;9.35;;;6.10;;
34741;SDS011;20968;42.696;23.360;2022-10-16T02:40:57;10.10;;;6.30;;
34741;SDS011;20968;42.696;23.360;2022-10-16T02:43:24;10.32;;;5.30;;
34741;SDS011;20968;42.696;23.360;2022-10-16T02:45:50;8.23;;;4.90;;
34741;SDS011;20968;42.696;23.360;2022-10-16T02:48:16;8.38;;;5.05;;
34741;SDS011;20968;42.696;23.360;2022-10-16T02:50:41;7.35;;;4.95;;
34741;SDS011;20968;42.696;23.360;2022-10-16T02:53:06;7.20;;;4.35;;
34741;SDS011;20968;42.696;23.360;2022-10-16T02:55:32;10.05;;;4.60;;
34741;SDS011;20968;42.696;23.360;2022-10-16T02:57:57;8.07;;;4.85;;
34741;SDS011;20968;42.696;23.360;2022-10-16T03:00:23;13.93;;;5.20;;
34741;SDS011;20968;42.696;23.360;2022-10-16T03:02:49;5.63;;;4.07;;
34741;SDS011;20968;42.696;23.360;2022-10-16T03:05:14;8.13;;;5.20;;
34741;SDS011;20968;42.696;23.360;2022-10-16T03:07:40;9.02;;;5.18;;
34741;SDS011;20968;42.696;23.360;2022-10-16T03:10:06;8.77;;;5.50;;
34741;SDS011;20968;42.696;23.360;2022-10-16T03:12:32;7.95;;;5.22;;
34741;SDS011;20968;42.696;23.360;2022-10-16T03:14:58;14.02;;;5.15;;
34741;SDS011;20968;42.696;23.360;2022-10-16T03:17:24;8.38;;;5.40;;
34741;SDS011;20968;42.696;23.360;2022-10-16T03:19:50;9.10;;;5.18;;
34741;SDS011;20968;42.696;23.360;2022-10-16T03:22:16;13.52;;;6.15;;
34741;SDS011;20968;42.696;23.360;2022-10-16T03:24:41;9.82;;;5.30;;
34741;SDS011;20968;42.696;23.360;2022-10-16T03:27:07;10.75;;;5.47;;
34741;SDS011;20968;42.696;23.360;2022-10-16T03:29:32;7.97;;;5.10;;
34741;SDS011;20968;42.696;23.360;2022-10-16T03:31:58;11.75;;;5.93;;
34741;SDS011;20968;42.696;23.360;2022-10-16T03:34:24;7.80;;;5.43;;
34741;SDS011;20968;42.696;23.360;2022-10-16T03:36:49;8.77;;;5.70;;
34741;SDS011;20968;42.696;23.360;2022-10-16T03:39:15;8.32;;;5.75;;
34741;SDS011;20968;42.696;23.360;2022-10-16T03:41:40;9.48;;;5.32;;
34741;SDS011;20968;42.696;23.360;2022-10-16T03:44:06;8.57;;;5.57;;
34741;SDS011;20968;42.696;23.360;2022-10-16T03:46:31;9.68;;;6.97;;
34741;SDS011;20968;42.696;23.360;2022-10-16T03:48:57;10.40;;;5.65;;
34741;SDS011;20968;42.696;23.360;2022-10-16T03:51:22;12.10;;;5.65;;
34741;SDS011;20968;42.696;23.360;2022-10-16T03:53:48;12.23;;;5.88;;
34741;SDS011;20968;42.696;23.360;2022-10-16T03:56:13;9.10;;;5.30;;
34741;SDS011;20968;42.696;23.360;2022-10-16T03:58:39;10.95;;;5.60;;
34741;SDS011;20968;42.696;23.360;2022-10-16T04:01:04;9.25;;;4.80;;
34741;SDS011;20968;42.696;23.360;2022-10-16T04:03:29;8.05;;;5.65;;
34741;SDS011;20968;42.696;23.360;2022-10-16T04:05:55;9.18;;;5.35;;
34741;SDS011;20968;42.696;23.360;2022-10-16T04:08:20;14.05;;;5.82;;
34741;SDS011;20968;42.696;23.360;2022-10-16T04:10:46;10.57;;;5.88;;
34741;SDS011;20968;42.696;23.360;2022-10-16T04:13:11;8.82;;;5.18;;
34741;SDS011;20968;42.696;23.360;2022-10-16T04:15:37;11.23;;;5.43;;
34741;SDS011;20968;42.696;23.360;2022-10-16T04:18:03;7.95;;;5.57;;
34741;SDS011;20968;42.696;23.360;2022-10-16T04:20:29;11.23;;;6.72;;
34741;SDS011;20968;42.696;23.360;2022-10-16T04:22:55;9.00;;;5.45;;
34741;SDS011;20968;42.696;23.360;2022-10-16T04:25:20;12.15;;;5.90;;
34741;SDS011;20968;42.696;23.360;2022-10-16T04:27:46;7.75;;;5.68;;
34741;SDS011;20968;42.696;23.360;2022-10-16T04:30:11;8.98;;;5.60;;
34741;SDS011;20968;42.696;23.360;2022-10-16T04:32:38;14.43;;;6.68;;
34741;SDS011;20968;42.696;23.360;2022-10-16T04:35:03;15.35;;;6.25;;
34741;SDS011;20968;42.696;23.360;2022-10-16T04:37:29;12.23;;;6.05;;
34741;SDS011;20968;42.696;23.360;2022-10-16T04:39:55;11.95;;;5.68;;
34741;SDS011;20968;42.696;23.360;2022-10-16T04:42:21;12.93;;;5.78;;
34741;SDS011;20968;42.696;23.360;2022-10-16T04:44:46;13.02;;;6.25;;
34741;SDS011;20968;42.696;23.360;2022-10-16T04:47:12;14.15;;;6.15;;
34741;SDS011;20968;42.696;23.360;2022-10-16T04:49:38;8.93;;;5.32;;
34741;SDS011;20968;42.696;23.360;2022-10-16T04:52:04;9.95;;;5.95;;
34741;SDS011;20968;42.696;23.360;2022-10-16T04:54:30;12.20;;;5.90;;
34741;SDS011;20968;42.696;23.360;2022-10-16T04:56:55;7.63;;;5.30;;
34741;SDS011;20968;42.696;23.360;2022-10-16T04:59:21;12.70;;;5.93;;
34741;SDS011;20968;42.696;23.360;2022-10-16T05:01:47;10.30;;;5.35;;
34741;SDS011;20968;42.696;23.360;2022-10-16T05:04:12;11.85;;;5.53;;
34741;SDS011;20968;42.696;23.360;2022-10-16T05:06:39;14.98;;;6.60;;
34741;SDS011;20968;42.696;23.360;2022-10-16T05:09:06;10.90;;;6.47;;
34741;SDS011;20968;42.696;23.360;2022-10-16T05:11:31;12.10;;;6.80;;
34741;SDS011;20968;42.696;23.360;2022-10-16T05:13:57;11.05;;;6.30;;
34741;SDS011;20968;42.696;23.360;2022-10-16T05:16:23;16.13;;;5.68;;
34741;SDS011;20968;42.696;23.360;2022-10-16T05:18:48;11.25;;;5.65;;
34741;SDS011;20968;42.696;23.360;2022-10-16T05:21:14;11.48;;;5.18;;
34741;SDS011;20968;42.696;23.360;2022-10-16T05:23:39;10.70;;;5.85;;
34741;SDS011;20968;42.696;23.360;2022-10-16T05:26:04;10.18;;;5.82;;
34741;SDS011;20968;42.696;23.360;2022-10-16T05:28:30;19.25;;;6.68;;
34741;SDS011;20968;42.696;23.360;2022-10-16T05:30:56;13.70;;;6.10;;
34741;SDS011;20968;42.696;23.360;2022-10-16T05:33:23;11.52;;;6.90;;
34741;SDS011;20968;42.696;23.360;2022-10-16T05:35:49;12.95;;;6.20;;
34741;SDS011;20968;42.696;23.360;2022-10-16T05:38:15;18.40;;;7.63;;
34741;SDS011;20968;42.696;23.360;2022-10-16T05:40:42;18.80;;;7.07;;
34741;SDS011;20968;42.696;23.360;2022-10-16T05:43:07;17.35;;;7.20;;
34741;SDS011;20968;42.696;23.360;2022-10-16T05:45:33;14.40;;;6.43;;
34741;SDS011;20968;42.696;23.360;2022-10-16T05:47:59;11.65;;;6.22;;
34741;SDS011;20968;42.696;23.360;2022-10-16T05:50:25;18.27;;;7.38;;
34741;SDS011;20968;42.696;23.360;2022-10-16T05:52:50;13.63;;;8.20;;
34741;SDS011;20968;42.696;23.360;2022-10-16T05:55:16;16.63;;;8.25;;
34741;SDS011;20968;42.696;23.360;2022-10-16T05:57:41;17.17;;;7.95;;
34741;SDS011;20968;42.696;23.360;2022-10-16T06:00:07;19.05;;;8.70;;
34741;SDS011;20968;42.696;23.360;2022-10-16T06:02:33;10.13;;;6.07;;
34741;SDS011;20968;42.696;23.360;2022-10-16T06:04:58;12.13;;;6.35;;
34741;SDS011;20968;42.696;23.360;2022-10-16T06:07:24;17.42;;;6.60;;
34741;SDS011;20968;42.696;23.360;2022-10-16T06:09:49;12.23;;;6.82;;
34741;SDS011;20968;42.696;23.360;2022-10-16T06:12:16;25.17;;;10.95;;
34741;SDS011;20968;42.696;23.360;2022-10-16T06:14:42;14.63;;;8.52;;
34741;SDS011;20968;42.696;23.360;2022-10-16T06:17:07;18.63;;;9.80;;
34741;SDS011;20968;42.696;23.360;2022-10-16T06:19:32;19.42;;;9.02;;
34741;SDS011;20968;42.696;23.360;2022-10-16T06:21:58;34.90;;;13.80;;
34741;SDS011;20968;42.696;23.360;2022-10-16T06:24:27;28.08;;;10.90;;
34741;SDS011;20968;42.696;23.360;2022-10-16T06:26:55;20.55;;;11.05;;
34741;SDS011;20968;42.696;23.360;2022-10-16T06:29:21;18.52;;;8.55;;
34741;SDS011;20968;42.696;23.360;2022-10-16T06:31:46;14.98;;;7.95;;
34741;SDS011;20968;42.696;23.360;2022-10-16T06:34:12;10.35;;;6.38;;
34741;SDS011;20968;42.696;23.360;2022-10-16T06:36:38;12.07;;;8.10;;
34741;SDS011;20968;42.696;23.360;2022-10-16T06:39:04;11.15;;;6.65;;
34741;SDS011;20968;42.696;23.360;2022-10-16T06:41:31;9.95;;;6.72;;
34741;SDS011;20968;42.696;23.360;2022-10-16T06:43:57;13.40;;;7.32;;
34741;SDS011;20968;42.696;23.360;2022-10-16T06:46:23;17.48;;;7.78;;
34741;SDS011;20968;42.696;23.360;2022-10-16T06:48:50;10.35;;;5.88;;
34741;SDS011;20968;42.696;23.360;2022-10-16T06:51:16;12.60;;;7.50;;
34741;SDS011;20968;42.696;23.360;2022-10-16T06:53:44;17.33;;;7.47;;
34741;SDS011;20968;42.696;23.360;2022-10-16T06:58:36;11.65;;;7.22;;
34741;SDS011;20968;42.696;23.360;2022-10-16T07:01:02;10.38;;;6.53;;
34741;SDS011;20968;42.696;23.360;2022-10-16T07:03:28;12.27;;;6.82;;
34741;SDS011;20968;42.696;23.360;2022-10-16T07:05:54;11.93;;;6.47;;
34741;SDS011;20968;42.696;23.360;2022-10-16T07:08:19;11.68;;;6.75;;
34741;SDS011;20968;42.696;23.360;2022-10-16T07:10:44;12.50;;;6.50;;
34741;SDS011;20968;42.696;23.360;2022-10-16T07:13:10;12.27;;;7.22;;
34741;SDS011;20968;42.696;23.360;2022-10-16T07:15:38;9.10;;;6.13;;
34741;SDS011;20968;42.696;23.360;2022-10-16T07:18:04;10.30;;;6.60;;
34741;SDS011;20968;42.696;23.360;2022-10-16T07:20:29;10.43;;;6.30;;
34741;SDS011;20968;42.696;23.360;2022-10-16T07:22:55;12.75;;;6.80;;
34741;SDS011;20968;42.696;23.360;2022-10-16T07:25:20;8.68;;;5.70;;
34741;SDS011;20968;42.696;23.360;2022-10-16T07:27:46;6.32;;;5.05;;
34741;SDS011;20968;42.696;23.360;2022-10-16T07:30:11;10.75;;;6.47;;
34741;SDS011;20968;42.696;23.360;2022-10-16T07:32:37;7.53;;;5.72;;
34741;SDS011;20968;42.696;23.360;2022-10-16T07:35:02;14.10;;;6.55;;
34741;SDS011;20968;42.696;23.360;2022-10-16T07:37:28;8.80;;;5.55;;
34741;SDS011;20968;42.696;23.360;2022-10-16T07:39:54;8.75;;;5.57;;
34741;SDS011;20968;42.696;23.360;2022-10-16T07:42:19;9.43;;;6.00;;
34741;SDS011;20968;42.696;23.360;2022-10-16T07:44:45;10.55;;;6.03;;
34741;SDS011;20968;42.696;23.360;2022-10-16T07:47:10;7.25;;;4.78;;
34741;SDS011;20968;42.696;23.360;2022-10-16T07:49:36;12.38;;;5.60;;
34741;SDS011;20968;42.696;23.360;2022-10-16T07:52:01;8.15;;;5.15;;
34741;SDS011;20968;42.696;23.360;2022-10-16T07:54:27;5.63;;;4.30;;
34741;SDS011;20968;42.696;23.360;2022-10-16T07:56:52;7.07;;;4.68;;
34741;SDS011;20968;42.696;23.360;2022-10-16T07:59:17;10.15;;;5.60;;
34741;SDS011;20968;42.696;23.360;2022-10-16T08:01:43;9.02;;;5.00;;
34741;SDS011;20968;42.696;23.360;2022-10-16T08:04:09;10.85;;;5.25;;
34741;SDS011;20968;42.696;23.360;2022-10-16T08:06:35;6.85;;;4.97;;
34741;SDS011;20968;42.696;23.360;2022-10-16T08:09:02;7.45;;;5.47;;
34741;SDS011;20968;42.696;23.360;2022-10-16T08:11:27;11.13;;;5.50;;
34741;SDS011;20968;42.696;23.360;2022-10-16T08:13:53;13.82;;;6.22;;
34741;SDS011;20968;42.696;23.360;2022-10-16T08:16:18;7.93;;;5.60;;
34741;SDS011;20968;42.696;23.360;2022-10-16T08:18:43;10.13;;;5.85;;
34741;SDS011;20968;42.696;23.360;2022-10-16T08:21:12;12.27;;;6.20;;
34741;SDS011;20968;42.696;23.360;2022-10-16T08:23:40;8.95;;;6.18;;
34741;SDS011;20968;42.696;23.360;2022-10-16T08:26:06;8.45;;;5.63;;
34741;SDS011;20968;42.696;23.360;2022-10-16T08:28:33;9.43;;;4.93;;
34741;SDS011;20968;42.696;23.360;2022-10-16T08:31:09;7.18;;;4.85;;
34741;SDS011;20968;42.696;23.360;2022-10-16T08:33:40;10.60;;;5.25;;
34741;SDS011;20968;42.696;23.360;2022-10-16T08:36:07;8.13;;;5.22;;
34741;SDS011;20968;42.696;23.360;2022-10-16T08:38:33;12.48;;;4.53;;
34741;SDS011;20968;42.696;23.360;2022-10-16T08:47:02;6.72;;;4.40;;
34741;SDS011;20968;42.696;23.360;2022-10-16T08:49:53;12.25;;;4.18;;
34741;SDS011;20968;42.696;23.360;2022-10-16T08:52:23;4.90;;;3.70;;
34741;SDS011;20968;42.696;23.360;2022-10-16T08:54:53;8.82;;;3.50;;
34741;SDS011;20968;42.696;23.360;2022-10-16T08:57:21;6.13;;;3.50;;
34741;SDS011;20968;42.696;23.360;2022-10-16T08:59:49;8.27;;;2.50;;
34741;SDS011;20968;42.696;23.360;2022-10-16T09:07:49;6.38;;;3.67;;
34741;SDS011;20968;42.696;23.360;2022-10-16T09:10:54;5.93;;;3.03;;
34741;SDS011;20968;42.696;23.360;2022-10-16T09:13:32;4.70;;;3.13;;
34741;SDS011;20968;42.696;23.360;2022-10-16T09:16:25;2.85;;;1.92;;
34741;SDS011;20968;42.696;23.360;2022-10-16T09:21:46;5.15;;;2.35;;
34741;SDS011;20968;42.696;23.360;2022-10-16T09:24:20;2.85;;;2.53;;
34741;SDS011;20968;42.696;23.360;2022-10-16T09:26:49;5.80;;;2.47;;
34741;SDS011;20968;42.696;23.360;2022-10-16T09:29:18;3.60;;;2.30;;
34741;SDS011;20968;42.696;23.360;2022-10-16T09:31:46;2.33;;;1.95;;
34741;SDS011;20968;42.696;23.360;2022-10-16T09:34:32;2.72;;;2.22;;
34741;SDS011;20968;42.696;23.360;2022-10-16T09:37:02;7.20;;;2.50;;
34741;SDS011;20968;42.696;23.360;2022-10-16T09:39:31;2.95;;;2.13;;
34741;SDS011;20968;42.696;23.360;2022-10-16T09:42:10;3.33;;;2.60;;
34741;SDS011;20968;42.696;23.360;2022-10-16T09:44:39;3.35;;;2.63;;
34741;SDS011;20968;42.696;23.360;2022-10-16T09:47:12;2.97;;;2.22;;
34741;SDS011;20968;42.696;23.360;2022-10-16T09:49:53;6.82;;;3.05;;
34741;SDS011;20968;42.696;23.360;2022-10-16T09:52:21;7.20;;;3.03;;
34741;SDS011;20968;42.696;23.360;2022-10-16T09:54:51;2.95;;;2.42;;
34741;SDS011;20968;42.696;23.360;2022-10-16T09:57:18;5.55;;;2.53;;
34741;SDS011;20968;42.696;23.360;2022-10-16T09:59:45;4.57;;;3.10;;
34741;SDS011;20968;42.696;23.360;2022-10-16T10:02:16;3.78;;;2.22;;
34741;SDS011;20968;42.696;23.360;2022-10-16T10:04:53;4.68;;;2.72;;
34741;SDS011;20968;42.696;23.360;2022-10-16T10:07:28;5.00;;;2.20;;
34741;SDS011;20968;42.696;23.360;2022-10-16T10:10:02;2.38;;;1.92;;
34741;SDS011;20968;42.696;23.360;2022-10-16T10:12:30;3.85;;;2.53;;
34741;SDS011;20968;42.696;23.360;2022-10-16T10:15:21;4.78;;;2.67;;
34741;SDS011;20968;42.696;23.360;2022-10-16T10:18:19;4.13;;;2.72;;
34741;SDS011;20968;42.696;23.360;2022-10-16T10:20:57;4.85;;;3.03;;
34741;SDS011;20968;42.696;23.360;2022-10-16T10:23:24;3.45;;;2.50;;
34741;SDS011;20968;42.696;23.360;2022-10-16T10:31:08;6.20;;;2.92;;
34741;SDS011;20968;42.696;23.360;2022-10-16T10:39:11;7.72;;;2.53;;
34741;SDS011;20968;42.696;23.360;2022-10-16T10:45:17;3.67;;;2.35;;
34741;SDS011;20968;42.696;23.360;2022-10-16T10:55:40;2.83;;;2.30;;
34741;SDS011;20968;42.696;23.360;2022-10-16T11:01:15;2.92;;;1.90;;
34741;SDS011;20968;42.696;23.360;2022-10-16T11:06:39;4.85;;;3.30;;
34741;SDS011;20968;42.696;23.360;2022-10-16T11:09:13;3.55;;;2.25;;
34741;SDS011;20968;42.696;23.360;2022-10-16T11:11:46;3.80;;;2.35;;
34741;SDS011;20968;42.696;23.360;2022-10-16T11:14:40;7.82;;;2.67;;
34741;SDS011;20968;42.696;23.360;2022-10-16T11:20:31;4.45;;;2.08;;
34741;SDS011;20968;42.696;23.360;2022-10-16T11:23:01;7.13;;;2.70;;
34741;SDS011;20968;42.696;23.360;2022-10-16T11:25:30;5.63;;;2.47;;
34741;SDS011;20968;42.696;23.360;2022-10-16T11:30:30;3.80;;;2.25;;
34741;SDS011;20968;42.696;23.360;2022-10-16T11:33:22;3.40;;;2.10;;
34741;SDS011;20968;42.696;23.360;2022-10-16T11:41:35;6.43;;;2.60;;
34741;SDS011;20968;42.696;23.360;2022-10-16T11:50:29;3.22;;;2.00;;
34741;SDS011;20968;42.696;23.360;2022-10-16T11:55:49;4.47;;;2.83;;
34741;SDS011;20968;42.696;23.360;2022-10-16T12:00:47;3.28;;;2.28;;
34741;SDS011;20968;42.696;23.360;2022-10-16T12:03:30;3.47;;;1.88;;
34741;SDS011;20968;42.696;23.360;2022-10-16T12:06:26;3.45;;;2.00;;
34741;SDS011;20968;42.696;23.360;2022-10-16T12:08:58;3.90;;;2.38;;
34741;SDS011;20968;42.696;23.360;2022-10-16T12:14:07;4.07;;;2.10;;
34741;SDS011;20968;42.696;23.360;2022-10-16T12:16:36;2.90;;;2.10;;
34741;SDS011;20968;42.696;23.360;2022-10-16T12:19:13;2.30;;;1.98;;
34741;SDS011;20968;42.696;23.360;2022-10-16T12:21:40;2.03;;;1.80;;
34741;SDS011;20968;42.696;23.360;2022-10-16T12:24:06;10.30;;;2.15;;
34741;SDS011;20968;42.696;23.360;2022-10-16T12:26:47;4.72;;;1.77;;
34741;SDS011;20968;42.696;23.360;2022-10-16T12:32:02;4.10;;;2.45;;
34741;SDS011;20968;42.696;23.360;2022-10-16T12:34:41;4.15;;;2.08;;
34741;SDS011;20968;42.696;23.360;2022-10-16T12:37:53;5.72;;;2.58;;
34741;SDS011;20968;42.696;23.360;2022-10-16T12:40:11;4.50;;;2.45;;
34741;SDS011;20968;42.696;23.360;2022-10-16T12:42:39;7.82;;;2.25;;
34741;SDS011;20968;42.696;23.360;2022-10-16T12:48:00;2.70;;;1.80;;
34741;SDS011;20968;42.696;23.360;2022-10-16T12:52:58;2.45;;;1.80;;
34741;SDS011;20968;42.696;23.360;2022-10-16T12:55:24;5.28;;;2.03;;
34741;SDS011;20968;42.696;23.360;2022-10-16T13:00:47;2.83;;;1.83;;
34741;SDS011;20968;42.696;23.360;2022-10-16T13:06:17;2.10;;;1.60;;
34741;SDS011;20968;42.696;23.360;2022-10-16T13:21:43;3.05;;;2.00;;
34741;SDS011;20968;42.696;23.360;2022-10-16T13:29:39;3.90;;;2.47;;
34741;SDS011;20968;42.696;23.360;2022-10-16T13:32:10;2.83;;;1.90;;
34741;SDS011;20968;42.696;23.360;2022-10-16T13:34:43;2.53;;;1.90;;
34741;SDS011;20968;42.696;23.360;2022-10-16T13:40:07;1.92;;;1.40;;
34741;SDS011;20968;42.696;23.360;2022-10-16T13:42:45;2.10;;;1.40;;
34741;SDS011;20968;42.696;23.360;2022-10-16T13:45:18;1.65;;;1.45;;
34741;SDS011;20968;42.696;23.360;2022-10-16T13:47:45;2.85;;;1.38;;
34741;SDS011;20968;42.696;23.360;2022-10-16T13:50:17;4.07;;;1.45;;
34741;SDS011;20968;42.696;23.360;2022-10-16T13:52:43;2.47;;;1.40;;
34741;SDS011;20968;42.696;23.360;2022-10-16T13:55:13;2.72;;;1.58;;
34741;SDS011;20968;42.696;23.360;2022-10-16T13:57:41;2.15;;;1.80;;
34741;SDS011;20968;42.696;23.360;2022-10-16T14:00:23;2.03;;;1.38;;
34741;SDS011;20968;42.696;23.360;2022-10-16T14:03:00;2.20;;;1.52;;
34741;SDS011;20968;42.696;23.360;2022-10-16T14:05:47;3.65;;;1.80;;
34741;SDS011;20968;42.696;23.360;2022-10-16T14:08:15;5.40;;;1.42;;
34741;SDS011;20968;42.696;23.360;2022-10-16T14:10:41;3.15;;;1.80;;
34741;SDS011;20968;42.696;23.360;2022-10-16T14:13:07;2.25;;;1.17;;
34741;SDS011;20968;42.696;23.360;2022-10-16T14:15:45;3.83;;;1.63;;
34741;SDS011;20968;42.696;23.360;2022-10-16T14:18:15;1.77;;;1.55;;
34741;SDS011;20968;42.696;23.360;2022-10-16T14:20:45;1.45;;;1.20;;
34741;SDS011;20968;42.696;23.360;2022-10-16T14:23:30;2.08;;;1.33;;
34741;SDS011;20968;42.696;23.360;2022-10-16T14:26:11;2.92;;;1.52;;
34741;SDS011;20968;42.696;23.360;2022-10-16T14:28:45;2.17;;;1.48;;
34741;SDS011;20968;42.696;23.360;2022-10-16T14:31:24;4.72;;;1.48;;
34741;SDS011;20968;42.696;23.360;2022-10-16T14:33:52;2.33;;;1.52;;
34741;SDS011;20968;42.696;23.360;2022-10-16T14:36:18;2.20;;;1.80;;
34741;SDS011;20968;42.696;23.360;2022-10-16T14:41:45;4.15;;;1.70;;
34741;SDS011;20968;42.696;23.360;2022-10-16T14:44:12;3.38;;;1.73;;
34741;SDS011;20968;42.696;23.360;2022-10-16T14:46:39;5.93;;;1.88;;
34741;SDS011;20968;42.696;23.360;2022-10-16T14:51:40;4.13;;;1.70;;
34741;SDS011;20968;42.696;23.360;2022-10-16T14:54:10;11.38;;;2.28;;
34741;SDS011;20968;42.696;23.360;2022-10-16T14:56:50;2.45;;;1.98;;
34741;SDS011;20968;42.696;23.360;2022-10-16T14:59:37;4.82;;;2.60;;
34741;SDS011;20968;42.696;23.360;2022-10-16T15:02:39;6.28;;;1.98;;
34741;SDS011;20968;42.696;23.360;2022-10-16T15:05:20;6.90;;;2.83;;
34741;SDS011;20968;42.696;23.360;2022-10-16T15:07:52;3.30;;;2.38;;
34741;SDS011;20968;42.696;23.360;2022-10-16T15:10:21;5.63;;;2.50;;
34741;SDS011;20968;42.696;23.360;2022-10-16T15:12:48;6.78;;;2.92;;
34741;SDS011;20968;42.696;23.360;2022-10-16T15:17:48;8.77;;;6.88;;
34741;SDS011;20968;42.696;23.360;2022-10-16T15:20:17;5.88;;;2.33;;
34741;SDS011;20968;42.696;23.360;2022-10-16T15:22:42;4.22;;;2.13;;
34741;SDS011;20968;42.696;23.360;2022-10-16T15:27:52;4.82;;;2.25;;
34741;SDS011;20968;42.696;23.360;2022-10-16T15:30:18;12.85;;;2.30;;
34741;SDS011;20968;42.696;23.360;2022-10-16T15:32:43;2.75;;;2.17;;
34741;SDS011;20968;42.696;23.360;2022-10-16T15:35:09;5.70;;;2.42;;
34741;SDS011;20968;42.696;23.360;2022-10-16T15:37:34;9.43;;;2.83;;
34741;SDS011;20968;42.696;23.360;2022-10-16T15:40:00;6.03;;;2.45;;
34741;SDS011;20968;42.696;23.360;2022-10-16T15:42:26;3.97;;;2.40;;
34741;SDS011;20968;42.696;23.360;2022-10-16T15:44:51;4.05;;;2.10;;
34741;SDS011;20968;42.696;23.360;2022-10-16T15:47:16;7.25;;;3.13;;
34741;SDS011;20968;42.696;23.360;2022-10-16T15:49:42;4.32;;;2.53;;
34741;SDS011;20968;42.696;23.360;2022-10-16T15:52:07;5.78;;;2.50;;
34741;SDS011;20968;42.696;23.360;2022-10-16T15:54:32;4.57;;;2.40;;
34741;SDS011;20968;42.696;23.360;2022-10-16T15:56:58;6.45;;;2.85;;
34741;SDS011;20968;42.696;23.360;2022-10-16T15:59:23;8.80;;;3.55;;
34741;SDS011;20968;42.696;23.360;2022-10-16T16:01:49;5.90;;;3.40;;
34741;SDS011;20968;42.696;23.360;2022-10-16T16:04:14;3.75;;;2.78;;
34741;SDS011;20968;42.696;23.360;2022-10-16T16:06:41;5.18;;;2.55;;
34741;SDS011;20968;42.696;23.360;2022-10-16T16:09:09;13.20;;;3.88;;
34741;SDS011;20968;42.696;23.360;2022-10-16T16:11:39;6.82;;;3.35;;
34741;SDS011;20968;42.696;23.360;2022-10-16T16:14:09;5.22;;;3.40;;
34741;SDS011;20968;42.696;23.360;2022-10-16T16:16:37;6.13;;;2.53;;
34741;SDS011;20968;42.696;23.360;2022-10-16T16:19:04;5.95;;;3.17;;
34741;SDS011;20968;42.696;23.360;2022-10-16T16:21:31;8.25;;;4.80;;
34741;SDS011;20968;42.696;23.360;2022-10-16T16:23:57;6.80;;;2.70;;
34741;SDS011;20968;42.696;23.360;2022-10-16T16:26:24;6.28;;;3.20;;
34741;SDS011;20968;42.696;23.360;2022-10-16T16:28:58;6.38;;;3.00;;
34741;SDS011;20968;42.696;23.360;2022-10-16T16:31:24;9.63;;;4.38;;
34741;SDS011;20968;42.696;23.360;2022-10-16T16:33:53;11.10;;;3.47;;
34741;SDS011;20968;42.696;23.360;2022-10-16T16:36:19;5.25;;;3.80;;
34741;SDS011;20968;42.696;23.360;2022-10-16T16:38:45;7.18;;;3.97;;
34741;SDS011;20968;42.696;23.360;2022-10-16T16:41:12;8.43;;;4.22;;
34741;SDS011;20968;42.696;23.360;2022-10-16T16:43:39;5.80;;;3.95;;
34741;SDS011;20968;42.696;23.360;2022-10-16T16:46:04;6.32;;;3.70;;
34741;SDS011;20968;42.696;23.360;2022-10-16T16:48:31;10.82;;;4.53;;
34741;SDS011;20968;42.696;23.360;2022-10-16T16:50:56;7.55;;;4.50;;